sensor_id;sensor_type;location;lat;lon;timestamp;temperature;humidity
1205;DHT22;592;48.764;9.174;2023-07-20T00:02:19;20.10;92.90
1205;DHT22;592;48.764;9.174;2023-07-20T00:04:46;19.80;92.70
1205;DHT22;592;48.764;9.174;2023-07-20T00:07:12;19.90;92.90
1205;DHT22;592;48.764;9.174;2023-07-20T00:09:41;19.70;92.80
1205;DHT22;592;48.764;9.174;2023-07-20T00:12:08;19.60;93.00
1205;DHT22;592;48.764;9.174;2023-07-20T00:14:35;19.50;93.10
1205;DHT22;592;48.764;9.174;2023-07-20T00:17:03;19.40;93.40
1205;DHT22;592;48.764;9.174;2023-07-20T00:19:30;19.30;93.30
1205;DHT22;592;48.764;9.174;2023-07-20T00:21:58;19.20;92.80
1205;DHT22;592;48.764;9.174;2023-07-20T00:24:24;19.20;92.60
1205;DHT22;592;48.764;9.174;2023-07-20T00:26:51;19.20;92.10
1205;DHT22;592;48.764;9.174;2023-07-20T00:29:18;19.20;91.90
1205;DHT22;592;48.764;9.174;2023-07-20T00:31:44;19.10;92.10
1205;DHT22;592;48.764;9.174;2023-07-20T00:34:12;19.10;92.10
1205;DHT22;592;48.764;9.174;2023-07-20T00:36:39;19.10;92.10
1205;DHT22;592;48.764;9.174;2023-07-20T00:39:06;19.00;92.10
1205;DHT22;592;48.764;9.174;2023-07-20T00:41:33;19.00;92.10
1205;DHT22;592;48.764;9.174;2023-07-20T00:44:00;19.00;92.10
1205;DHT22;592;48.764;9.174;2023-07-20T00:46:27;19.00;92.00
1205;DHT22;592;48.764;9.174;2023-07-20T00:48:54;19.00;92.00
1205;DHT22;592;48.764;9.174;2023-07-20T00:51:23;19.10;92.20
1205;DHT22;592;48.764;9.174;2023-07-20T00:53:52;19.00;92.30
1205;DHT22;592;48.764;9.174;2023-07-20T00:56:19;19.00;92.10
1205;DHT22;592;48.764;9.174;2023-07-20T00:58:46;19.00;92.30
1205;DHT22;592;48.764;9.174;2023-07-20T01:01:13;19.10;92.30
1205;DHT22;592;48.764;9.174;2023-07-20T01:03:40;19.00;92.20
1205;DHT22;592;48.764;9.174;2023-07-20T01:06:14;19.00;92.20
1205;DHT22;592;48.764;9.174;2023-07-20T01:08:55;18.90;92.30
1205;DHT22;592;48.764;9.174;2023-07-20T01:11:31;18.90;92.30
1205;DHT22;592;48.764;9.174;2023-07-20T01:14:00;18.80;92.50
1205;DHT22;592;48.764;9.174;2023-07-20T01:16:27;18.80;92.60
1205;DHT22;592;48.764;9.174;2023-07-20T01:18:54;18.70;92.50
1205;DHT22;592;48.764;9.174;2023-07-20T01:21:26;18.90;92.60
1205;DHT22;592;48.764;9.174;2023-07-20T01:27:26;18.80;92.70
1205;DHT22;592;48.764;9.174;2023-07-20T01:30:08;18.70;92.90
1205;DHT22;592;48.764;9.174;2023-07-20T01:32:42;18.70;92.80
1205;DHT22;592;48.764;9.174;2023-07-20T01:35:12;18.60;93.00
1205;DHT22;592;48.764;9.174;2023-07-20T01:37:41;18.60;93.20
1205;DHT22;592;48.764;9.174;2023-07-20T01:40:10;18.50;93.10
1205;DHT22;592;48.764;9.174;2023-07-20T01:42:38;18.50;93.30
1205;DHT22;592;48.764;9.174;2023-07-20T01:45:06;18.30;93.80
1205;DHT22;592;48.764;9.174;2023-07-20T01:47:34;18.10;94.30
1205;DHT22;592;48.764;9.174;2023-07-20T01:50:02;18.00;94.80
1205;DHT22;592;48.764;9.174;2023-07-20T01:52:29;17.90;95.00
1205;DHT22;592;48.764;9.174;2023-07-20T01:54:56;17.80;95.20
1205;DHT22;592;48.764;9.174;2023-07-20T01:57:23;17.70;95.30
1205;DHT22;592;48.764;9.174;2023-07-20T01:59:49;17.80;94.90
1205;DHT22;592;48.764;9.174;2023-07-20T02:02:16;18.00;94.70
1205;DHT22;592;48.764;9.174;2023-07-20T02:04:43;18.00;94.40
1205;DHT22;592;48.764;9.174;2023-07-20T02:07:11;17.90;95.00
1205;DHT22;592;48.764;9.174;2023-07-20T02:09:38;17.70;95.60
1205;DHT22;592;48.764;9.174;2023-07-20T02:12:08;17.40;96.00
1205;DHT22;592;48.764;9.174;2023-07-20T02:14:34;17.30;96.20
1205;DHT22;592;48.764;9.174;2023-07-20T02:17:01;17.40;95.60
1205;DHT22;592;48.764;9.174;2023-07-20T02:19:29;17.60;95.50
1205;DHT22;592;48.764;9.174;2023-07-20T02:21:56;17.40;95.70
1205;DHT22;592;48.764;9.174;2023-07-20T02:24:24;17.50;95.60
1205;DHT22;592;48.764;9.174;2023-07-20T02:26:51;17.60;95.10
1205;DHT22;592;48.764;9.174;2023-07-20T02:29:18;17.60;95.20
1205;DHT22;592;48.764;9.174;2023-07-20T02:31:45;17.60;95.30
1205;DHT22;592;48.764;9.174;2023-07-20T02:34:12;17.40;95.70
1205;DHT22;592;48.764;9.174;2023-07-20T02:36:39;17.40;95.90
1205;DHT22;592;48.764;9.174;2023-07-20T02:39:08;17.40;95.70
1205;DHT22;592;48.764;9.174;2023-07-20T02:41:36;17.50;95.40
1205;DHT22;592;48.764;9.174;2023-07-20T02:44:02;17.50;95.20
1205;DHT22;592;48.764;9.174;2023-07-20T02:46:29;17.40;95.70
1205;DHT22;592;48.764;9.174;2023-07-20T02:48:56;17.30;96.00
1205;DHT22;592;48.764;9.174;2023-07-20T02:51:23;17.20;96.10
1205;DHT22;592;48.764;9.174;2023-07-20T02:53:50;17.20;96.30
1205;DHT22;592;48.764;9.174;2023-07-20T02:56:16;17.30;95.80
1205;DHT22;592;48.764;9.174;2023-07-20T02:58:44;17.40;95.60
1205;DHT22;592;48.764;9.174;2023-07-20T03:01:12;17.40;95.60
1205;DHT22;592;48.764;9.174;2023-07-20T03:03:41;17.30;95.80
1205;DHT22;592;48.764;9.174;2023-07-20T03:06:11;17.30;96.10
1205;DHT22;592;48.764;9.174;2023-07-20T03:08:38;17.20;96.10
1205;DHT22;592;48.764;9.174;2023-07-20T03:11:06;17.00;96.50
1205;DHT22;592;48.764;9.174;2023-07-20T03:13:33;16.90;96.60
1205;DHT22;592;48.764;9.174;2023-07-20T03:16:01;17.00;96.70
1205;DHT22;592;48.764;9.174;2023-07-20T03:18:28;17.00;96.50
1205;DHT22;592;48.764;9.174;2023-07-20T03:20:55;17.10;96.30
1205;DHT22;592;48.764;9.174;2023-07-20T03:23:21;17.10;96.50
1205;DHT22;592;48.764;9.174;2023-07-20T03:25:48;17.20;96.50
1205;DHT22;592;48.764;9.174;2023-07-20T03:28:15;17.00;96.60
1205;DHT22;592;48.764;9.174;2023-07-20T03:30:41;17.00;96.50
1205;DHT22;592;48.764;9.174;2023-07-20T03:33:09;17.10;96.50
1205;DHT22;592;48.764;9.174;2023-07-20T03:35:36;17.10;96.50
1205;DHT22;592;48.764;9.174;2023-07-20T03:38:03;17.00;96.80
1205;DHT22;592;48.764;9.174;2023-07-20T03:40:30;16.90;96.90
1205;DHT22;592;48.764;9.174;2023-07-20T03:42:56;17.00;97.00
1205;DHT22;592;48.764;9.174;2023-07-20T03:45:23;16.90;97.00
1205;DHT22;592;48.764;9.174;2023-07-20T03:47:50;16.80;97.40
1205;DHT22;592;48.764;9.174;2023-07-20T03:50:18;16.80;96.90
1205;DHT22;592;48.764;9.174;2023-07-20T03:52:45;16.90;96.90
1205;DHT22;592;48.764;9.174;2023-07-20T03:55:11;17.00;96.60
1205;DHT22;592;48.764;9.174;2023-07-20T03:57:38;17.00;97.00
1205;DHT22;592;48.764;9.174;2023-07-20T04:00:06;17.00;96.80
1205;DHT22;592;48.764;9.174;2023-07-20T04:02:33;17.00;97.00
1205;DHT22;592;48.764;9.174;2023-07-20T04:05:00;16.90;97.50
1205;DHT22;592;48.764;9.174;2023-07-20T04:07:28;16.90;97.50
1205;DHT22;592;48.764;9.174;2023-07-20T04:09:54;16.90;97.60
1205;DHT22;592;48.764;9.174;2023-07-20T04:12:21;16.90;97.40
1205;DHT22;592;48.764;9.174;2023-07-20T04:14:48;17.00;97.50
1205;DHT22;592;48.764;9.174;2023-07-20T04:17:15;17.00;97.20
1205;DHT22;592;48.764;9.174;2023-07-20T04:19:42;17.20;97.00
1205;DHT22;592;48.764;9.174;2023-07-20T04:22:08;17.40;96.80
1205;DHT22;592;48.764;9.174;2023-07-20T04:24:36;17.50;97.10
1205;DHT22;592;48.764;9.174;2023-07-20T04:27:03;17.70;96.60
1205;DHT22;592;48.764;9.174;2023-07-20T04:29:30;17.60;96.70
1205;DHT22;592;48.764;9.174;2023-07-20T04:31:57;17.80;96.70
1205;DHT22;592;48.764;9.174;2023-07-20T04:34:24;17.90;96.50
1205;DHT22;592;48.764;9.174;2023-07-20T04:36:50;18.00;96.80
1205;DHT22;592;48.764;9.174;2023-07-20T04:39:17;18.10;96.70
1205;DHT22;592;48.764;9.174;2023-07-20T04:41:45;18.20;96.70
1205;DHT22;592;48.764;9.174;2023-07-20T04:44:13;18.10;96.80
1205;DHT22;592;48.764;9.174;2023-07-20T04:46:40;18.40;96.60
1205;DHT22;592;48.764;9.174;2023-07-20T04:49:07;18.50;96.40
1205;DHT22;592;48.764;9.174;2023-07-20T04:51:34;18.30;96.50
1205;DHT22;592;48.764;9.174;2023-07-20T04:54:01;18.30;96.60
1205;DHT22;592;48.764;9.174;2023-07-20T04:56:27;18.50;96.50
1205;DHT22;592;48.764;9.174;2023-07-20T04:58:55;18.80;96.40
1205;DHT22;592;48.764;9.174;2023-07-20T05:01:23;18.90;96.10
1205;DHT22;592;48.764;9.174;2023-07-20T05:03:52;19.10;95.90
1205;DHT22;592;48.764;9.174;2023-07-20T05:06:18;19.20;95.90
1205;DHT22;592;48.764;9.174;2023-07-20T05:08:45;19.40;95.80
1205;DHT22;592;48.764;9.174;2023-07-20T05:11:12;19.30;95.80
1205;DHT22;592;48.764;9.174;2023-07-20T05:13:39;19.10;95.80
1205;DHT22;592;48.764;9.174;2023-07-20T05:16:07;18.90;96.00
1205;DHT22;592;48.764;9.174;2023-07-20T05:18:34;18.80;96.20
1205;DHT22;592;48.764;9.174;2023-07-20T05:21:01;19.10;96.10
1205;DHT22;592;48.764;9.174;2023-07-20T05:23:27;19.00;96.40
1205;DHT22;592;48.764;9.174;2023-07-20T05:25:58;18.90;96.20
1205;DHT22;592;48.764;9.174;2023-07-20T05:28:25;19.10;96.40
1205;DHT22;592;48.764;9.174;2023-07-20T05:30:52;19.30;96.20
1205;DHT22;592;48.764;9.174;2023-07-20T05:33:20;19.30;96.00
1205;DHT22;592;48.764;9.174;2023-07-20T05:35:48;19.30;95.90
1205;DHT22;592;48.764;9.174;2023-07-20T05:38:14;19.50;96.20
1205;DHT22;592;48.764;9.174;2023-07-20T05:40:44;19.30;96.20
1205;DHT22;592;48.764;9.174;2023-07-20T05:43:12;19.40;96.20
1205;DHT22;592;48.764;9.174;2023-07-20T05:45:41;18.90;96.40
1205;DHT22;592;48.764;9.174;2023-07-20T05:48:08;19.30;96.70
1205;DHT22;592;48.764;9.174;2023-07-20T05:50:38;19.40;96.50
1205;DHT22;592;48.764;9.174;2023-07-20T05:53:04;19.50;96.10
1205;DHT22;592;48.764;9.174;2023-07-20T05:55:32;19.70;95.80
1205;DHT22;592;48.764;9.174;2023-07-20T05:57:58;19.50;96.30
1205;DHT22;592;48.764;9.174;2023-07-20T06:00:25;19.40;95.70
1205;DHT22;592;48.764;9.174;2023-07-20T06:02:52;19.50;95.80
1205;DHT22;592;48.764;9.174;2023-07-20T06:05:20;19.50;95.60
1205;DHT22;592;48.764;9.174;2023-07-20T06:07:48;19.40;95.60
1205;DHT22;592;48.764;9.174;2023-07-20T06:10:15;19.40;96.00
1205;DHT22;592;48.764;9.174;2023-07-20T06:12:42;19.40;95.60
1205;DHT22;592;48.764;9.174;2023-07-20T06:15:24;19.60;95.60
1205;DHT22;592;48.764;9.174;2023-07-20T06:17:53;19.50;95.60
1205;DHT22;592;48.764;9.174;2023-07-20T06:20:19;19.80;95.90
1205;DHT22;592;48.764;9.174;2023-07-20T06:22:46;19.50;95.50
1205;DHT22;592;48.764;9.174;2023-07-20T06:25:14;19.50;95.80
1205;DHT22;592;48.764;9.174;2023-07-20T06:27:42;19.50;95.70
1205;DHT22;592;48.764;9.174;2023-07-20T06:30:10;19.60;95.80
1205;DHT22;592;48.764;9.174;2023-07-20T06:32:37;19.80;96.20
1205;DHT22;592;48.764;9.174;2023-07-20T06:35:05;19.90;96.00
1205;DHT22;592;48.764;9.174;2023-07-20T06:37:32;19.80;95.40
1205;DHT22;592;48.764;9.174;2023-07-20T06:39:59;20.00;95.70
1205;DHT22;592;48.764;9.174;2023-07-20T06:42:27;20.00;95.90
1205;DHT22;592;48.764;9.174;2023-07-20T06:44:54;19.90;95.50
1205;DHT22;592;48.764;9.174;2023-07-20T06:47:20;19.90;96.10
1205;DHT22;592;48.764;9.174;2023-07-20T06:49:47;20.30;95.70
1205;DHT22;592;48.764;9.174;2023-07-20T06:52:14;20.10;95.60
1205;DHT22;592;48.764;9.174;2023-07-20T06:54:41;20.30;95.60
1205;DHT22;592;48.764;9.174;2023-07-20T06:57:07;20.80;95.90
1205;DHT22;592;48.764;9.174;2023-07-20T06:59:36;21.10;95.40
1205;DHT22;592;48.764;9.174;2023-07-20T07:02:03;21.10;95.20
1205;DHT22;592;48.764;9.174;2023-07-20T07:04:30;21.20;94.80
1205;DHT22;592;48.764;9.174;2023-07-20T07:06:56;21.20;95.20
1205;DHT22;592;48.764;9.174;2023-07-20T07:09:23;21.30;95.20
1205;DHT22;592;48.764;9.174;2023-07-20T07:11:50;21.10;94.90
1205;DHT22;592;48.764;9.174;2023-07-20T07:14:19;21.60;95.00
1205;DHT22;592;48.764;9.174;2023-07-20T07:16:48;21.80;94.90
1205;DHT22;592;48.764;9.174;2023-07-20T07:19:14;22.00;94.40
1205;DHT22;592;48.764;9.174;2023-07-20T07:21:41;22.10;94.30
1205;DHT22;592;48.764;9.174;2023-07-20T07:24:08;22.10;93.80
1205;DHT22;592;48.764;9.174;2023-07-20T07:26:38;22.10;93.60
1205;DHT22;592;48.764;9.174;2023-07-20T07:29:04;22.10;94.00
1205;DHT22;592;48.764;9.174;2023-07-20T07:31:34;22.30;94.10
1205;DHT22;592;48.764;9.174;2023-07-20T07:34:03;21.80;93.30
1205;DHT22;592;48.764;9.174;2023-07-20T07:36:30;22.10;93.50
1205;DHT22;592;48.764;9.174;2023-07-20T07:38:57;21.80;93.60
1205;DHT22;592;48.764;9.174;2023-07-20T07:41:23;21.90;93.70
1205;DHT22;592;48.764;9.174;2023-07-20T07:43:50;21.50;93.70
1205;DHT22;592;48.764;9.174;2023-07-20T07:46:17;21.60;93.80
1205;DHT22;592;48.764;9.174;2023-07-20T07:48:43;21.70;93.40
1205;DHT22;592;48.764;9.174;2023-07-20T07:51:12;22.00;93.70
1205;DHT22;592;48.764;9.174;2023-07-20T07:53:39;21.90;93.30
1205;DHT22;592;48.764;9.174;2023-07-20T07:56:07;22.10;93.80
1205;DHT22;592;48.764;9.174;2023-07-20T07:58:34;22.60;93.50
1205;DHT22;592;48.764;9.174;2023-07-20T08:01:01;22.40;93.00
1205;DHT22;592;48.764;9.174;2023-07-20T08:03:28;22.40;93.20
1205;DHT22;592;48.764;9.174;2023-07-20T08:05:55;21.90;93.20
1205;DHT22;592;48.764;9.174;2023-07-20T08:08:23;22.10;92.80
1205;DHT22;592;48.764;9.174;2023-07-20T08:10:52;21.90;92.00
1205;DHT22;592;48.764;9.174;2023-07-20T08:13:19;22.20;92.70
1205;DHT22;592;48.764;9.174;2023-07-20T08:15:52;21.70;91.90
1205;DHT22;592;48.764;9.174;2023-07-20T08:18:22;22.20;92.90
1205;DHT22;592;48.764;9.174;2023-07-20T08:20:51;22.60;92.20
1205;DHT22;592;48.764;9.174;2023-07-20T08:23:17;22.60;92.20
1205;DHT22;592;48.764;9.174;2023-07-20T08:25:46;22.40;92.20
1205;DHT22;592;48.764;9.174;2023-07-20T08:28:14;22.70;91.60
1205;DHT22;592;48.764;9.174;2023-07-20T08:30:42;22.80;91.70
1205;DHT22;592;48.764;9.174;2023-07-20T08:33:09;22.80;91.50
1205;DHT22;592;48.764;9.174;2023-07-20T08:35:36;22.70;90.90
1205;DHT22;592;48.764;9.174;2023-07-20T08:38:03;22.90;90.90
1205;DHT22;592;48.764;9.174;2023-07-20T08:40:30;23.00;91.00
1205;DHT22;592;48.764;9.174;2023-07-20T08:42:59;23.40;91.20
1205;DHT22;592;48.764;9.174;2023-07-20T08:45:27;23.70;90.40
1205;DHT22;592;48.764;9.174;2023-07-20T08:47:55;23.10;90.30
1205;DHT22;592;48.764;9.174;2023-07-20T08:50:23;22.80;90.30
1205;DHT22;592;48.764;9.174;2023-07-20T08:52:52;22.40;90.70
1205;DHT22;592;48.764;9.174;2023-07-20T08:55:20;22.20;91.00
1205;DHT22;592;48.764;9.174;2023-07-20T08:57:50;22.30;91.30
1205;DHT22;592;48.764;9.174;2023-07-20T09:00:20;22.30;91.40
1205;DHT22;592;48.764;9.174;2023-07-20T09:02:49;22.50;91.10
1205;DHT22;592;48.764;9.174;2023-07-20T09:05:16;22.90;91.40
1205;DHT22;592;48.764;9.174;2023-07-20T09:07:44;23.30;91.10
1205;DHT22;592;48.764;9.174;2023-07-20T09:10:11;23.50;89.90
1205;DHT22;592;48.764;9.174;2023-07-20T09:12:38;23.60;89.40
1205;DHT22;592;48.764;9.174;2023-07-20T09:15:06;23.70;89.10
1205;DHT22;592;48.764;9.174;2023-07-20T09:17:35;23.50;87.70
1205;DHT22;592;48.764;9.174;2023-07-20T09:20:03;23.80;89.30
1205;DHT22;592;48.764;9.174;2023-07-20T09:22:34;23.70;87.90
1205;DHT22;592;48.764;9.174;2023-07-20T09:25:00;23.50;86.90
1205;DHT22;592;48.764;9.174;2023-07-20T09:27:35;23.80;87.20
1205;DHT22;592;48.764;9.174;2023-07-20T09:30:04;23.70;86.80
1205;DHT22;592;48.764;9.174;2023-07-20T09:32:39;23.70;88.00
1205;DHT22;592;48.764;9.174;2023-07-20T09:35:11;23.80;86.10
1205;DHT22;592;48.764;9.174;2023-07-20T09:37:39;23.60;86.90
1205;DHT22;592;48.764;9.174;2023-07-20T09:40:07;23.80;87.90
1205;DHT22;592;48.764;9.174;2023-07-20T09:42:36;23.90;88.50
1205;DHT22;592;48.764;9.174;2023-07-20T09:45:06;24.00;89.20
1205;DHT22;592;48.764;9.174;2023-07-20T09:47:37;23.60;88.50
1205;DHT22;592;48.764;9.174;2023-07-20T09:50:06;23.20;86.40
1205;DHT22;592;48.764;9.174;2023-07-20T09:52:39;23.40;86.50
1205;DHT22;592;48.764;9.174;2023-07-20T09:55:09;23.60;87.30
1205;DHT22;592;48.764;9.174;2023-07-20T09:57:37;24.00;86.50
1205;DHT22;592;48.764;9.174;2023-07-20T10:00:06;24.20;86.80
1205;DHT22;592;48.764;9.174;2023-07-20T10:02:43;24.20;86.00
1205;DHT22;592;48.764;9.174;2023-07-20T10:05:13;24.40;87.00
1205;DHT22;592;48.764;9.174;2023-07-20T10:07:44;24.70;85.30
1205;DHT22;592;48.764;9.174;2023-07-20T10:10:14;24.00;84.20
1205;DHT22;592;48.764;9.174;2023-07-20T10:12:41;23.90;84.60
1205;DHT22;592;48.764;9.174;2023-07-20T10:15:11;23.80;84.50
1205;DHT22;592;48.764;9.174;2023-07-20T10:17:47;23.90;85.60
1205;DHT22;592;48.764;9.174;2023-07-20T10:20:19;23.80;85.10
1205;DHT22;592;48.764;9.174;2023-07-20T10:22:48;23.50;85.20
1205;DHT22;592;48.764;9.174;2023-07-20T10:25:16;23.50;85.00
1205;DHT22;592;48.764;9.174;2023-07-20T10:27:45;23.70;85.70
1205;DHT22;592;48.764;9.174;2023-07-20T10:30:15;23.80;84.50
1205;DHT22;592;48.764;9.174;2023-07-20T10:32:45;23.80;83.70
1205;DHT22;592;48.764;9.174;2023-07-20T10:35:13;24.10;85.00
1205;DHT22;592;48.764;9.174;2023-07-20T10:37:49;24.10;84.90
1205;DHT22;592;48.764;9.174;2023-07-20T10:40:30;24.50;85.60
1205;DHT22;592;48.764;9.174;2023-07-20T10:43:02;24.50;84.20
1205;DHT22;592;48.764;9.174;2023-07-20T10:45:34;24.30;83.30
1205;DHT22;592;48.764;9.174;2023-07-20T10:48:03;24.40;82.60
1205;DHT22;592;48.764;9.174;2023-07-20T10:50:32;24.40;83.50
1205;DHT22;592;48.764;9.174;2023-07-20T10:53:10;24.40;83.50
1205;DHT22;592;48.764;9.174;2023-07-20T10:55:37;24.10;82.40
1205;DHT22;592;48.764;9.174;2023-07-20T10:58:08;24.20;83.20
1205;DHT22;592;48.764;9.174;2023-07-20T11:00:36;24.30;81.90
1205;DHT22;592;48.764;9.174;2023-07-20T11:03:04;24.20;81.10
1205;DHT22;592;48.764;9.174;2023-07-20T11:05:35;24.20;80.90
1205;DHT22;592;48.764;9.174;2023-07-20T11:08:04;24.40;82.30
1205;DHT22;592;48.764;9.174;2023-07-20T11:10:33;24.60;80.70
1205;DHT22;592;48.764;9.174;2023-07-20T11:13:27;24.70;80.20
1205;DHT22;592;48.764;9.174;2023-07-20T11:16:04;24.30;78.00
1205;DHT22;592;48.764;9.174;2023-07-20T11:18:34;24.00;78.90
1205;DHT22;592;48.764;9.174;2023-07-20T11:21:10;24.10;80.10
1205;DHT22;592;48.764;9.174;2023-07-20T11:23:38;23.80;79.60
1205;DHT22;592;48.764;9.174;2023-07-20T11:26:06;23.80;77.50
1205;DHT22;592;48.764;9.174;2023-07-20T11:28:34;23.90;78.60
1205;DHT22;592;48.764;9.174;2023-07-20T11:31:01;24.10;77.80
1205;DHT22;592;48.764;9.174;2023-07-20T11:33:27;24.20;78.50
1205;DHT22;592;48.764;9.174;2023-07-20T11:35:54;24.30;79.40
1205;DHT22;592;48.764;9.174;2023-07-20T11:38:21;24.20;77.80
1205;DHT22;592;48.764;9.174;2023-07-20T11:40:49;24.10;78.50
1205;DHT22;592;48.764;9.174;2023-07-20T11:43:18;24.20;78.30
1205;DHT22;592;48.764;9.174;2023-07-20T11:45:46;23.90;78.40
1205;DHT22;592;48.764;9.174;2023-07-20T11:48:15;24.10;79.40
1205;DHT22;592;48.764;9.174;2023-07-20T11:50:41;23.90;77.60
1205;DHT22;592;48.764;9.174;2023-07-20T11:53:08;24.20;79.40
1205;DHT22;592;48.764;9.174;2023-07-20T11:55:36;24.50;79.30
1205;DHT22;592;48.764;9.174;2023-07-20T11:58:04;24.60;78.20
1205;DHT22;592;48.764;9.174;2023-07-20T12:00:33;24.50;76.30
1205;DHT22;592;48.764;9.174;2023-07-20T12:03:01;24.10;76.20
1205;DHT22;592;48.764;9.174;2023-07-20T12:05:27;24.20;77.40
1205;DHT22;592;48.764;9.174;2023-07-20T12:07:54;24.40;77.40
1205;DHT22;592;48.764;9.174;2023-07-20T12:10:26;24.50;76.00
1205;DHT22;592;48.764;9.174;2023-07-20T12:12:54;24.50;76.20
1205;DHT22;592;48.764;9.174;2023-07-20T12:15:22;24.90;76.90
1205;DHT22;592;48.764;9.174;2023-07-20T12:17:55;25.10;75.20
1205;DHT22;592;48.764;9.174;2023-07-20T12:20:26;24.90;74.60
1205;DHT22;592;48.764;9.174;2023-07-20T12:22:55;24.70;74.50
1205;DHT22;592;48.764;9.174;2023-07-20T12:25:22;24.50;74.90
1205;DHT22;592;48.764;9.174;2023-07-20T12:27:51;24.30;74.50
1205;DHT22;592;48.764;9.174;2023-07-20T12:30:18;24.50;74.40
1205;DHT22;592;48.764;9.174;2023-07-20T12:32:45;24.70;74.90
1205;DHT22;592;48.764;9.174;2023-07-20T12:35:13;24.80;76.20
1205;DHT22;592;48.764;9.174;2023-07-20T12:37:41;25.00;76.10
1205;DHT22;592;48.764;9.174;2023-07-20T12:40:08;24.80;75.80
1205;DHT22;592;48.764;9.174;2023-07-20T12:42:36;25.00;76.10
1205;DHT22;592;48.764;9.174;2023-07-20T12:45:04;25.10;76.20
1205;DHT22;592;48.764;9.174;2023-07-20T12:47:31;25.20;75.60
1205;DHT22;592;48.764;9.174;2023-07-20T12:49:58;25.40;76.30
1205;DHT22;592;48.764;9.174;2023-07-20T12:52:26;25.40;73.80
1205;DHT22;592;48.764;9.174;2023-07-20T12:54:52;25.40;75.20
1205;DHT22;592;48.764;9.174;2023-07-20T12:57:19;25.40;73.70
1205;DHT22;592;48.764;9.174;2023-07-20T12:59:46;25.00;74.70
1205;DHT22;592;48.764;9.174;2023-07-20T13:02:12;24.90;74.20
1205;DHT22;592;48.764;9.174;2023-07-20T13:04:39;25.00;74.10
1205;DHT22;592;48.764;9.174;2023-07-20T13:07:09;25.20;73.50
1205;DHT22;592;48.764;9.174;2023-07-20T13:09:38;25.20;72.70
1205;DHT22;592;48.764;9.174;2023-07-20T13:12:05;25.20;72.30
1205;DHT22;592;48.764;9.174;2023-07-20T13:14:32;25.10;72.50
1205;DHT22;592;48.764;9.174;2023-07-20T13:16:59;25.10;73.50
1205;DHT22;592;48.764;9.174;2023-07-20T13:19:26;25.60;75.00
1205;DHT22;592;48.764;9.174;2023-07-20T13:21:52;25.90;74.30
1205;DHT22;592;48.764;9.174;2023-07-20T13:24:19;26.10;74.30
1205;DHT22;592;48.764;9.174;2023-07-20T13:26:47;26.20;73.50
1205;DHT22;592;48.764;9.174;2023-07-20T13:29:14;26.20;73.00
1205;DHT22;592;48.764;9.174;2023-07-20T13:31:41;26.30;73.90
1205;DHT22;592;48.764;9.174;2023-07-20T13:34:07;26.10;72.10
1205;DHT22;592;48.764;9.174;2023-07-20T13:36:34;26.30;71.60
1205;DHT22;592;48.764;9.174;2023-07-20T13:39:02;26.20;72.20
1205;DHT22;592;48.764;9.174;2023-07-20T13:41:33;26.30;71.80
1205;DHT22;592;48.764;9.174;2023-07-20T13:44:01;26.20;69.90
1205;DHT22;592;48.764;9.174;2023-07-20T13:46:28;25.80;70.20
1205;DHT22;592;48.764;9.174;2023-07-20T13:48:54;26.10;69.70
1205;DHT22;592;48.764;9.174;2023-07-20T13:51:21;26.20;68.40
1205;DHT22;592;48.764;9.174;2023-07-20T13:53:48;26.10;69.60
1205;DHT22;592;48.764;9.174;2023-07-20T13:56:15;26.10;68.90
1205;DHT22;592;48.764;9.174;2023-07-20T13:58:41;26.40;71.00
1205;DHT22;592;48.764;9.174;2023-07-20T14:01:10;27.00;70.80
1205;DHT22;592;48.764;9.174;2023-07-20T14:03:36;27.00;67.80
1205;DHT22;592;48.764;9.174;2023-07-20T14:06:04;26.90;68.50
1205;DHT22;592;48.764;9.174;2023-07-20T14:08:30;26.60;68.20
1205;DHT22;592;48.764;9.174;2023-07-20T14:10:57;26.70;69.30
1205;DHT22;592;48.764;9.174;2023-07-20T14:13:24;27.20;69.20
1205;DHT22;592;48.764;9.174;2023-07-20T14:15:50;27.60;69.00
1205;DHT22;592;48.764;9.174;2023-07-20T14:18:19;27.80;65.60
1205;DHT22;592;48.764;9.174;2023-07-20T14:20:45;27.90;66.20
1205;DHT22;592;48.764;9.174;2023-07-20T14:23:12;28.40;67.80
1205;DHT22;592;48.764;9.174;2023-07-20T14:25:39;28.30;64.30
1205;DHT22;592;48.764;9.174;2023-07-20T14:28:05;27.30;65.60
1205;DHT22;592;48.764;9.174;2023-07-20T14:30:32;27.50;65.40
1205;DHT22;592;48.764;9.174;2023-07-20T14:32:59;27.70;64.70
1205;DHT22;592;48.764;9.174;2023-07-20T14:35:27;27.60;67.30
1205;DHT22;592;48.764;9.174;2023-07-20T14:37:54;28.00;67.10
1205;DHT22;592;48.764;9.174;2023-07-20T14:40:20;28.90;66.40
1205;DHT22;592;48.764;9.174;2023-07-20T14:42:47;29.50;66.60
1205;DHT22;592;48.764;9.174;2023-07-20T14:45:14;30.10;65.60
1205;DHT22;592;48.764;9.174;2023-07-20T14:47:41;30.20;64.00
1205;DHT22;592;48.764;9.174;2023-07-20T14:50:09;30.40;62.40
1205;DHT22;592;48.764;9.174;2023-07-20T14:52:37;30.50;62.90
1205;DHT22;592;48.764;9.174;2023-07-20T14:55:05;30.70;63.40
1205;DHT22;592;48.764;9.174;2023-07-20T14:57:31;31.20;63.40
1205;DHT22;592;48.764;9.174;2023-07-20T14:59:58;31.60;62.50
1205;DHT22;592;48.764;9.174;2023-07-20T15:02:25;31.30;61.80
1205;DHT22;592;48.764;9.174;2023-07-20T15:04:52;31.40;61.20
1205;DHT22;592;48.764;9.174;2023-07-20T15:07:20;31.90;62.40
1205;DHT22;592;48.764;9.174;2023-07-20T15:09:49;31.80;60.20
1205;DHT22;592;48.764;9.174;2023-07-20T15:12:16;30.90;58.30
1205;DHT22;592;48.764;9.174;2023-07-20T15:14:43;30.80;60.70
1205;DHT22;592;48.764;9.174;2023-07-20T15:17:10;29.80;60.10
1205;DHT22;592;48.764;9.174;2023-07-20T15:19:37;28.50;61.70
1205;DHT22;592;48.764;9.174;2023-07-20T15:22:05;28.70;62.70
1205;DHT22;592;48.764;9.174;2023-07-20T15:24:32;28.80;62.70
1205;DHT22;592;48.764;9.174;2023-07-20T15:27:00;28.00;62.20
1205;DHT22;592;48.764;9.174;2023-07-20T15:29:28;27.50;63.80
1205;DHT22;592;48.764;9.174;2023-07-20T15:31:55;27.20;64.30
1205;DHT22;592;48.764;9.174;2023-07-20T15:34:22;27.40;64.40
1205;DHT22;592;48.764;9.174;2023-07-20T15:36:48;27.20;63.70
1205;DHT22;592;48.764;9.174;2023-07-20T15:39:16;27.10;64.60
1205;DHT22;592;48.764;9.174;2023-07-20T15:41:42;26.80;64.10
1205;DHT22;592;48.764;9.174;2023-07-20T15:44:12;26.90;65.40
1205;DHT22;592;48.764;9.174;2023-07-20T15:46:46;27.00;65.00
1205;DHT22;592;48.764;9.174;2023-07-20T15:49:14;26.90;66.00
1205;DHT22;592;48.764;9.174;2023-07-20T15:51:41;27.10;65.90
1205;DHT22;592;48.764;9.174;2023-07-20T15:54:09;26.80;66.20
1205;DHT22;592;48.764;9.174;2023-07-20T15:56:37;26.70;66.20
1205;DHT22;592;48.764;9.174;2023-07-20T15:59:04;26.30;66.40
1205;DHT22;592;48.764;9.174;2023-07-20T16:01:32;26.50;67.10
1205;DHT22;592;48.764;9.174;2023-07-20T16:04:02;26.60;67.10
1205;DHT22;592;48.764;9.174;2023-07-20T16:06:30;26.60;67.50
1205;DHT22;592;48.764;9.174;2023-07-20T16:08:58;26.30;66.80
1205;DHT22;592;48.764;9.174;2023-07-20T16:11:27;26.20;66.40
1205;DHT22;592;48.764;9.174;2023-07-20T16:13:53;26.10;65.20
1205;DHT22;592;48.764;9.174;2023-07-20T16:16:20;26.00;67.40
1205;DHT22;592;48.764;9.174;2023-07-20T16:18:49;26.10;65.30
1205;DHT22;592;48.764;9.174;2023-07-20T16:21:16;25.90;66.20
1205;DHT22;592;48.764;9.174;2023-07-20T16:23:43;25.90;66.00
1205;DHT22;592;48.764;9.174;2023-07-20T16:26:10;25.70;66.70